createdAt,value
2023-04-23T00:01:06.402Z,5.80
2023-04-23T00:03:41.751Z,6.30
2023-04-23T00:06:14.490Z,6.60
2023-04-23T00:08:47.810Z,6.70
2023-04-23T00:11:19.668Z,6.32
2023-04-23T00:13:51.819Z,6.95
2023-04-23T00:16:24.771Z,6.40
2023-04-23T00:18:56.626Z,9.00
2023-04-23T00:21:28.434Z,7.10
2023-04-23T00:24:00.187Z,8.27
2023-04-23T00:26:57.426Z,8.50
2023-04-23T00:29:33.627Z,8.55
2023-04-23T00:32:05.444Z,10.00
2023-04-23T00:34:43.514Z,10.35
2023-04-23T00:37:16.280Z,9.30
2023-04-23T00:39:48.251Z,10.25
2023-04-23T00:42:20.465Z,9.45
2023-04-23T00:44:53.212Z,9.63
2023-04-23T00:47:25.407Z,9.48
2023-04-23T00:49:58.143Z,9.15
2023-04-23T00:52:33.104Z,9.23
2023-04-23T00:55:05.599Z,9.43
2023-04-23T00:57:38.495Z,9.32
2023-04-23T01:00:13.984Z,9.32
2023-04-23T01:02:47.781Z,8.10
2023-04-23T01:05:20.325Z,8.40
2023-04-23T01:07:52.135Z,8.48
2023-04-23T01:13:22.562Z,8.07
2023-04-23T01:15:57.492Z,7.97
2023-04-23T01:21:26.245Z,8.27
2023-04-23T01:23:58.450Z,8.50
2023-04-23T01:26:30.311Z,8.27
2023-04-23T01:29:27.478Z,8.30
2023-04-23T01:32:00.169Z,8.60
2023-04-23T01:34:32.420Z,8.82
2023-04-23T01:37:05.306Z,8.52
2023-04-23T01:39:37.448Z,8.05
2023-04-23T01:42:09.338Z,9.48
2023-04-23T01:44:50.048Z,8.48
2023-04-23T01:47:23.118Z,8.60
2023-04-23T01:49:55.497Z,8.60
2023-04-23T01:52:27.690Z,8.57
2023-04-23T01:55:02.384Z,8.45
2023-04-23T01:57:34.701Z,8.57
2023-04-23T02:00:11.182Z,7.82
2023-04-23T02:02:46.665Z,7.00
2023-04-23T02:05:20.042Z,6.22
2023-04-23T02:07:52.725Z,6.55
2023-04-23T02:10:25.783Z,6.78
2023-04-23T02:13:01.199Z,7.07
2023-04-23T02:15:35.066Z,7.28
2023-04-23T02:18:06.852Z,6.53
2023-04-23T02:20:41.724Z,6.45
2023-04-23T02:23:13.447Z,6.63
2023-04-23T02:25:46.124Z,6.38
2023-04-23T02:28:19.972Z,6.05
2023-04-23T02:30:51.743Z,7.13
2023-04-23T02:33:23.485Z,6.38
2023-04-23T02:35:55.405Z,6.78
2023-04-23T02:38:27.076Z,6.88
2023-04-23T02:40:58.956Z,5.93
2023-04-23T02:43:31.088Z,5.82
2023-04-23T02:46:08.608Z,7.20
2023-04-23T02:48:43.041Z,5.70
2023-04-23T02:54:11.915Z,6.35
2023-04-23T02:56:44.959Z,6.07
2023-04-23T02:59:16.704Z,6.88
2023-04-23T03:02:16.333Z,6.82
2023-04-23T03:04:48.034Z,6.68
2023-04-23T03:07:19.791Z,6.50
2023-04-23T03:09:51.828Z,6.75
2023-04-23T03:12:23.943Z,7.03
2023-04-23T03:14:58.486Z,6.75
2023-04-23T03:17:35.187Z,6.93
2023-04-23T03:20:10.605Z,6.28
2023-04-23T03:22:43.511Z,6.18
2023-04-23T03:25:15.424Z,6.72
2023-04-23T03:27:47.197Z,6.75
2023-04-23T03:30:22.873Z,6.65
2023-04-23T03:32:58.124Z,5.97
2023-04-23T03:35:30.591Z,6.63
2023-04-23T03:38:05.281Z,6.57
2023-04-23T03:40:39.629Z,7.05
2023-04-23T03:43:13.236Z,7.72
2023-04-23T03:46:08.121Z,7.40
2023-04-23T03:48:43.427Z,7.22
2023-04-23T03:51:22.216Z,6.53
2023-04-23T03:53:54.692Z,7.00
2023-04-23T03:56:46.091Z,6.40
2023-04-23T03:59:23.398Z,7.03
2023-04-23T04:01:59.566Z,6.55
2023-04-23T04:04:32.869Z,6.25
2023-04-23T04:07:07.688Z,6.68
2023-04-23T04:09:39.848Z,6.97
2023-04-23T04:12:12.279Z,6.72
2023-04-23T04:14:44.224Z,7.80
2023-04-23T04:17:16.319Z,6.53
2023-04-23T04:19:48.597Z,6.50
2023-04-23T04:22:20.676Z,6.93
2023-04-23T04:24:52.799Z,6.45
2023-04-23T04:27:24.534Z,6.20
2023-04-23T04:29:56.212Z,6.18
2023-04-23T04:32:29.099Z,6.57
2023-04-23T04:35:02.713Z,6.40
2023-04-23T04:37:35.460Z,6.80
2023-04-23T04:43:08.396Z,7.25
2023-04-23T04:45:40.047Z,8.00
2023-04-23T04:51:07.678Z,6.70
2023-04-23T04:53:39.477Z,6.43
2023-04-23T04:56:11.247Z,7.10
2023-04-23T04:58:43.057Z,6.93
2023-04-23T05:01:15.040Z,8.18
2023-04-23T05:03:47.019Z,7.63
2023-04-23T05:06:18.905Z,7.35
2023-04-23T05:08:50.929Z,6.65
2023-04-23T05:11:22.743Z,6.45
2023-04-23T05:13:54.492Z,7.22
2023-04-23T05:16:26.238Z,6.68
2023-04-23T05:19:23.751Z,6.90
2023-04-23T05:21:55.588Z,6.85
2023-04-23T05:24:27.309Z,6.75
2023-04-23T05:26:59.008Z,7.03
2023-04-23T05:29:30.806Z,5.78
2023-04-23T05:32:03.934Z,7.22
2023-04-23T05:37:31.223Z,6.20
2023-04-23T05:40:04.800Z,6.63
2023-04-23T05:42:39.419Z,6.20
2023-04-23T05:45:36.251Z,6.60
2023-04-23T05:48:07.964Z,5.50
2023-04-23T05:50:39.886Z,5.82
2023-04-23T05:53:11.661Z,6.32
2023-04-23T05:55:43.584Z,6.00
2023-04-23T05:58:19.310Z,5.75
2023-04-23T06:00:56.964Z,6.18
2023-04-23T06:03:28.821Z,6.07
2023-04-23T06:06:00.908Z,5.85
2023-04-23T06:08:32.801Z,5.57
2023-04-23T06:11:07.802Z,5.80
2023-04-23T06:13:43.531Z,6.25
2023-04-23T06:16:15.870Z,7.22
2023-04-23T06:18:47.565Z,6.60
2023-04-23T06:21:22.380Z,5.25
2023-04-23T06:23:54.632Z,5.95
2023-04-23T06:26:26.798Z,6.00
2023-04-23T06:29:02.779Z,8.13
2023-04-23T06:32:02.646Z,7.65
2023-04-23T06:34:34.415Z,5.72
2023-04-23T06:40:02.650Z,4.80
2023-04-23T06:42:34.370Z,4.55
2023-04-23T06:45:26.363Z,4.95
2023-04-23T06:47:58.079Z,5.00
2023-04-23T06:50:30.003Z,5.00
2023-04-23T06:53:01.741Z,4.43
2023-04-23T06:55:33.600Z,4.95
2023-04-23T06:58:08.380Z,4.43
2023-04-23T07:00:40.600Z,4.30
2023-04-23T07:03:12.624Z,4.38
2023-04-23T07:05:44.454Z,4.70
2023-04-23T07:08:16.240Z,4.60
2023-04-23T07:10:48.423Z,4.30
2023-04-23T07:13:20.144Z,4.20
2023-04-23T07:15:51.972Z,4.30
2023-04-23T07:18:23.662Z,4.30
2023-04-23T07:20:55.956Z,8.18
2023-04-23T07:23:27.655Z,4.25
2023-04-23T07:26:25.366Z,3.92
2023-04-23T07:28:57.118Z,4.13
2023-04-23T07:31:28.851Z,4.70
2023-04-23T07:34:01.327Z,4.47
2023-04-23T07:36:33.555Z,4.30
2023-04-23T07:39:08.571Z,4.10
2023-04-23T07:44:37.648Z,3.75
2023-04-23T07:47:09.459Z,3.88
2023-04-23T07:49:41.588Z,3.45
2023-04-23T07:52:38.059Z,3.50
2023-04-23T07:55:09.954Z,3.53
2023-04-23T07:57:41.725Z,3.53
2023-04-23T08:00:14.381Z,3.10
2023-04-23T08:02:47.487Z,3.20
2023-04-23T08:05:19.869Z,3.50
2023-04-23T08:10:47.490Z,3.05
2023-04-23T08:13:19.806Z,3.45
2023-04-23T08:15:52.178Z,3.33
2023-04-23T08:18:24.091Z,3.15
2023-04-23T08:20:56.761Z,3.33
2023-04-23T08:23:28.582Z,3.28
2023-04-23T08:26:01.137Z,2.92
2023-04-23T08:28:39.318Z,2.88
2023-04-23T08:31:22.588Z,3.17
2023-04-23T08:33:57.569Z,3.55
2023-04-23T08:36:29.534Z,2.60
2023-04-23T08:39:01.665Z,2.17
2023-04-23T08:41:39.834Z,2.10
2023-04-23T08:44:18.767Z,2.25
2023-04-23T08:46:51.160Z,1.67
2023-04-23T08:49:22.959Z,2.00
2023-04-23T08:51:55.183Z,1.88
2023-04-23T08:54:31.084Z,2.00
2023-04-23T08:57:06.122Z,1.67
2023-04-23T08:59:43.830Z,2.10
2023-04-23T09:02:17.258Z,1.92
2023-04-23T09:05:15.422Z,1.98
2023-04-23T09:07:47.190Z,1.60
2023-04-23T09:10:18.913Z,1.60
2023-04-23T09:12:50.706Z,2.00
2023-04-23T09:15:24.464Z,2.60
2023-04-23T09:17:59.009Z,2.83
2023-04-23T09:23:08.142Z,2.05
2023-04-23T09:25:39.904Z,2.10
2023-04-23T09:28:12.192Z,2.53
2023-04-23T09:30:45.430Z,1.80
2023-04-23T09:33:17.711Z,2.30
2023-04-23T09:35:49.751Z,2.03
2023-04-23T09:38:21.415Z,2.30
2023-04-23T09:40:53.130Z,1.90
2023-04-23T09:43:30.672Z,1.50
2023-04-23T09:46:02.448Z,1.88
2023-04-23T09:48:42.236Z,1.83
2023-04-23T09:51:41.546Z,1.80
2023-04-23T09:54:18.523Z,1.80
2023-04-23T09:56:53.978Z,2.00
2023-04-23T09:59:46.015Z,1.88
2023-04-23T10:02:19.995Z,2.00
2023-04-23T10:05:03.307Z,1.75
2023-04-23T10:07:43.850Z,2.00
2023-04-23T10:10:16.300Z,1.60
2023-04-23T10:12:54.726Z,1.98
2023-04-23T10:15:33.312Z,1.60
2023-04-23T10:18:06.219Z,1.67
2023-04-23T10:20:38.154Z,1.40
2023-04-23T10:23:12.657Z,1.42
2023-04-23T10:28:26.481Z,1.52
2023-04-23T10:30:59.735Z,1.85
2023-04-23T10:33:39.776Z,1.92
2023-04-23T10:36:15.077Z,1.73
2023-04-23T10:38:57.399Z,2.97
2023-04-23T10:41:37.599Z,2.05
2023-04-23T10:44:15.969Z,1.90
2023-04-23T10:46:58.508Z,2.80
2023-04-23T10:49:32.129Z,1.90
2023-04-23T10:52:19.356Z,2.35
2023-04-23T10:55:02.283Z,2.60
2023-04-23T10:58:07.381Z,2.38
2023-04-23T11:00:41.970Z,1.95
2023-04-23T11:03:37.974Z,1.77
2023-04-23T11:06:19.572Z,1.90
2023-04-23T11:08:54.801Z,2.13
2023-04-23T11:11:54.881Z,1.90
2023-04-23T11:14:52.593Z,2.17
2023-04-23T11:17:44.258Z,2.10
2023-04-23T11:20:23.927Z,2.20
2023-04-23T11:22:55.942Z,2.30
2023-04-23T11:25:28.723Z,2.30
2023-04-23T11:28:25.644Z,2.15
2023-04-23T11:30:57.792Z,2.15
2023-04-23T11:33:29.569Z,2.40
2023-04-23T11:36:04.103Z,2.30
2023-04-23T11:41:07.779Z,2.13
2023-04-23T11:43:39.537Z,2.20
2023-04-23T11:46:11.258Z,2.58
2023-04-23T11:48:43.028Z,2.03
2023-04-23T11:51:16.110Z,2.00
2023-04-23T11:53:48.651Z,2.08
2023-04-23T11:56:23.962Z,2.40
2023-04-23T11:59:00.320Z,2.00
2023-04-23T12:01:58.809Z,2.20
2023-04-23T12:04:33.297Z,1.95
2023-04-23T12:07:12.968Z,1.88
2023-04-23T12:10:00.146Z,2.00
2023-04-23T12:12:35.562Z,2.10
2023-04-23T12:15:08.426Z,2.67
2023-04-23T12:17:40.224Z,3.53
2023-04-23T12:20:18.181Z,4.25
2023-04-23T12:22:49.941Z,4.65
2023-04-23T12:25:25.837Z,2.75
2023-04-23T12:28:03.857Z,1.95
2023-04-23T12:30:51.074Z,1.90
2023-04-23T12:33:23.119Z,2.10
2023-04-23T12:35:54.885Z,1.90
2023-04-23T12:38:28.916Z,2.00
2023-04-23T12:41:01.933Z,2.38
2023-04-23T12:43:33.755Z,2.30
2023-04-23T12:46:05.526Z,2.17
2023-04-23T12:48:37.240Z,2.42
2023-04-23T12:51:09.403Z,2.28
2023-04-23T12:53:41.119Z,1.83
2023-04-23T12:56:12.839Z,1.73
2023-04-23T12:58:46.606Z,1.67
2023-04-23T13:01:18.389Z,1.48
2023-04-23T13:03:51.005Z,1.70
2023-04-23T13:06:22.963Z,1.58
2023-04-23T13:08:55.969Z,2.40
2023-04-23T13:11:27.734Z,1.90
2023-04-23T13:13:59.502Z,2.13
2023-04-23T13:16:31.429Z,1.58
2023-04-23T13:19:03.222Z,1.80
2023-04-23T13:21:37.934Z,1.52
2023-04-23T13:24:09.600Z,1.88
2023-04-23T13:26:41.427Z,1.83
2023-04-23T13:29:13.304Z,1.90
2023-04-23T13:31:45.567Z,1.83
2023-04-23T13:34:17.301Z,1.85
2023-04-23T13:36:51.078Z,1.90
2023-04-23T13:39:23.930Z,1.80
2023-04-23T13:42:09.141Z,1.85
2023-04-23T13:44:41.814Z,1.45
2023-04-23T13:47:13.583Z,1.70
2023-04-23T13:49:45.380Z,1.50
2023-04-23T13:52:17.072Z,1.70
2023-04-23T13:54:50.544Z,1.77
2023-04-23T13:57:22.321Z,2.10
2023-04-23T13:59:55.451Z,1.80
2023-04-23T14:02:27.446Z,1.60
2023-04-23T14:04:59.364Z,1.65
2023-04-23T14:07:31.130Z,1.50
2023-04-23T14:10:02.844Z,1.95
2023-04-23T14:12:34.576Z,1.70
2023-04-23T14:15:07.780Z,1.65
2023-04-23T14:17:40.754Z,1.50
2023-04-23T14:20:15.612Z,1.60
2023-04-23T14:22:56.606Z,1.40
2023-04-23T14:25:40.026Z,1.60
2023-04-23T14:28:39.195Z,1.70
2023-04-23T14:31:12.927Z,1.55
2023-04-23T14:33:44.696Z,1.83
2023-04-23T14:36:16.863Z,1.70
2023-04-23T14:38:48.508Z,1.90
2023-04-23T14:41:20.318Z,2.03
2023-04-23T14:43:54.985Z,1.80
2023-04-23T14:46:27.198Z,1.52
2023-04-23T14:48:58.950Z,1.90
2023-04-23T14:51:31.349Z,1.80
2023-04-23T14:54:03.311Z,1.80
2023-04-23T14:56:35.013Z,2.00
2023-04-23T14:59:06.819Z,1.70
2023-04-23T15:01:39.056Z,1.70
2023-04-23T15:04:12.914Z,1.80
2023-04-23T15:06:44.714Z,1.80
2023-04-23T15:09:17.032Z,1.85
2023-04-23T15:11:49.064Z,2.50
2023-04-23T15:14:32.139Z,1.70
2023-04-23T15:17:03.863Z,1.95
2023-04-23T15:19:35.610Z,2.05
2023-04-23T15:22:10.044Z,1.90
2023-04-23T15:24:41.792Z,2.20
2023-04-23T15:27:15.032Z,1.90
2023-04-23T15:29:49.722Z,2.00
2023-04-23T15:32:21.624Z,2.30
2023-04-23T15:34:53.347Z,2.25
2023-04-23T15:37:27.794Z,1.90
2023-04-23T15:39:59.531Z,1.85
2023-04-23T15:42:32.456Z,2.22
2023-04-23T15:45:04.470Z,2.35
2023-04-23T15:47:36.748Z,2.17
2023-04-23T15:50:09.736Z,2.30
2023-04-23T15:52:41.920Z,2.15
2023-04-23T15:55:13.693Z,2.00
2023-04-23T15:57:45.521Z,2.10
2023-04-23T16:00:17.460Z,1.90
2023-04-23T16:02:49.341Z,2.13
2023-04-23T16:05:24.583Z,2.13
2023-04-23T16:07:56.304Z,1.98
2023-04-23T16:10:29.916Z,2.25
2023-04-23T16:13:02.856Z,2.20
2023-04-23T16:15:34.646Z,2.38
2023-04-23T16:18:06.561Z,3.03
2023-04-23T16:20:38.313Z,2.10
2023-04-23T16:23:10.072Z,2.17
2023-04-23T16:25:41.864Z,2.33
2023-04-23T16:28:13.876Z,2.15
2023-04-23T16:30:45.814Z,2.50
2023-04-23T16:33:17.508Z,2.03
2023-04-23T16:35:49.269Z,1.92
2023-04-23T16:38:21.003Z,2.80
2023-04-23T16:40:52.753Z,1.95
2023-04-23T16:43:26.537Z,2.10
2023-04-23T16:45:58.316Z,2.47
2023-04-23T16:48:30.582Z,2.40
2023-04-23T16:51:02.359Z,2.20
2023-04-23T16:53:35.868Z,2.75
2023-04-23T16:56:08.833Z,2.92
2023-04-23T16:58:40.568Z,2.50
2023-04-23T17:01:12.303Z,2.40
2023-04-23T17:03:44.984Z,2.60
2023-04-23T17:06:27.589Z,2.80
2023-04-23T17:09:07.849Z,2.72
2023-04-23T17:11:39.548Z,2.60
2023-04-23T17:14:12.233Z,3.00
2023-04-23T17:16:44.623Z,2.60
2023-04-23T17:19:18.165Z,2.65
2023-04-23T17:21:49.974Z,2.35
2023-04-23T17:24:21.709Z,2.55
2023-04-23T17:26:53.453Z,2.45
2023-04-23T17:29:25.625Z,3.22
2023-04-23T17:31:57.409Z,2.85
2023-04-23T17:34:29.199Z,3.03
2023-04-23T17:37:01.196Z,2.83
2023-04-23T17:39:35.980Z,3.65
2023-04-23T17:42:07.950Z,3.22
2023-04-23T17:44:40.987Z,3.20
2023-04-23T17:47:14.240Z,3.60
2023-04-23T17:49:46.035Z,4.07
2023-04-23T17:52:17.856Z,3.42
2023-04-23T17:54:49.650Z,3.47
2023-04-23T17:57:21.415Z,5.05
2023-04-23T17:59:53.165Z,3.58
2023-04-23T18:02:25.020Z,3.97
2023-04-23T18:04:59.328Z,4.15
2023-04-23T18:07:31.082Z,4.43
2023-04-23T18:10:04.305Z,4.53
2023-04-23T18:12:36.116Z,4.47
2023-04-23T18:15:11.077Z,4.45
2023-04-23T18:17:45.457Z,4.32
2023-04-23T18:20:17.323Z,4.60
2023-04-23T18:22:49.427Z,4.72
2023-04-23T18:25:23.469Z,4.35
2023-04-23T18:27:55.152Z,4.20
2023-04-23T18:30:26.958Z,4.03
2023-04-23T18:33:26.117Z,4.88
2023-04-23T18:36:03.924Z,4.13
2023-04-23T18:38:44.854Z,4.22
2023-04-23T18:41:16.683Z,4.32
2023-04-23T18:43:48.444Z,4.65
2023-04-23T18:46:21.166Z,4.85
2023-04-23T18:49:27.885Z,4.43
2023-04-23T18:51:59.537Z,4.70
2023-04-23T18:54:31.479Z,4.70
2023-04-23T18:57:03.331Z,4.63
2023-04-23T18:59:35.841Z,4.80
2023-04-23T19:02:08.489Z,4.80
2023-04-23T19:04:40.462Z,6.43
2023-04-23T19:07:12.353Z,5.05
2023-04-23T19:09:49.657Z,4.78
2023-04-23T19:12:21.428Z,4.70
2023-04-23T19:14:53.113Z,4.65
2023-04-23T19:17:24.902Z,5.25
2023-04-23T19:19:56.668Z,5.30
2023-04-23T19:22:28.424Z,5.30
2023-04-23T19:25:00.132Z,5.05
2023-04-23T19:27:31.955Z,5.47
2023-04-23T19:30:10.107Z,5.18
2023-04-23T19:32:41.889Z,5.32
2023-04-23T19:35:13.585Z,5.15
2023-04-23T19:37:45.725Z,5.40
2023-04-23T19:40:18.516Z,6.43
2023-04-23T19:42:50.673Z,8.27
2023-04-23T19:45:22.425Z,9.48
2023-04-23T19:47:57.175Z,11.10
2023-04-23T19:50:29.715Z,11.65
2023-04-23T19:53:01.677Z,9.38
2023-04-23T19:55:33.758Z,7.45
2023-04-23T19:58:06.686Z,7.55
2023-04-23T20:00:41.425Z,7.05
2023-04-23T20:03:14.757Z,7.40
2023-04-23T20:05:48.223Z,7.90
2023-04-23T20:08:26.640Z,8.02
2023-04-23T20:10:58.521Z,5.30
2023-04-23T20:13:30.431Z,5.10
2023-04-23T20:16:03.038Z,6.20
2023-04-23T20:18:35.903Z,5.15
2023-04-23T20:21:09.224Z,4.75
2023-04-23T20:23:41.012Z,4.55
2023-04-23T20:26:12.801Z,4.40
2023-04-23T20:28:46.423Z,4.90
2023-04-23T20:31:20.016Z,4.83
2023-04-23T20:36:28.783Z,5.43
2023-04-23T20:39:07.768Z,5.97
2023-04-23T20:41:40.165Z,6.70
2023-04-23T20:44:13.274Z,6.13
2023-04-23T20:46:45.523Z,6.18
2023-04-23T20:49:18.359Z,6.10
2023-04-23T20:51:50.055Z,5.93
2023-04-23T20:54:21.713Z,5.47
2023-04-23T20:56:54.316Z,5.97
2023-04-23T20:59:26.216Z,5.93
2023-04-23T21:01:58.084Z,6.47
2023-04-23T21:04:30.081Z,6.20
2023-04-23T21:07:02.082Z,6.20
2023-04-23T21:09:33.897Z,6.43
2023-04-23T21:12:05.869Z,6.30
2023-04-23T21:14:37.682Z,6.28
2023-04-23T21:17:09.513Z,6.03
2023-04-23T21:19:41.593Z,6.13
2023-04-23T21:22:13.452Z,5.78
2023-04-23T21:24:45.138Z,6.22
2023-04-23T21:27:21.674Z,7.82
2023-04-23T21:29:53.626Z,7.43
2023-04-23T21:32:25.578Z,7.70
2023-04-23T21:34:57.319Z,6.65
2023-04-23T21:37:28.984Z,7.43
2023-04-23T21:40:04.260Z,6.55
2023-04-23T21:42:36.429Z,7.10
2023-04-23T21:45:08.675Z,6.22
2023-04-23T21:47:41.233Z,6.63
2023-04-23T21:50:13.483Z,7.07
2023-04-23T21:52:45.299Z,7.28
2023-04-23T21:55:17.091Z,7.25
2023-04-23T21:57:49.492Z,7.03
2023-04-23T22:00:21.810Z,6.65
2023-04-23T22:02:56.672Z,7.95
2023-04-23T22:05:28.741Z,8.68
2023-04-23T22:08:00.438Z,8.25
2023-04-23T22:10:32.335Z,8.23
2023-04-23T22:13:04.050Z,8.10
2023-04-23T22:15:36.383Z,7.30
2023-04-23T22:18:08.548Z,6.93
2023-04-23T22:20:40.422Z,7.10
2023-04-23T22:23:12.066Z,6.88
2023-04-23T22:25:44.902Z,7.85
2023-04-23T22:28:16.869Z,7.32
2023-04-23T22:30:50.119Z,7.10
2023-04-23T22:33:21.781Z,7.57
2023-04-23T22:35:53.500Z,7.82
2023-04-23T22:38:25.301Z,6.95
2023-04-23T22:40:57.045Z,7.07
2023-04-23T22:43:28.740Z,7.28
2023-04-23T22:46:01.523Z,7.35
2023-04-23T22:48:33.669Z,7.93
2023-04-23T22:51:05.463Z,7.75
2023-04-23T22:53:37.157Z,7.60
2023-04-23T22:56:09.040Z,8.13
2023-04-23T22:58:40.761Z,8.98
2023-04-23T23:01:12.493Z,8.30
2023-04-23T23:03:44.349Z,8.57
2023-04-23T23:06:17.794Z,8.77
2023-04-23T23:08:49.578Z,7.57
2023-04-23T23:11:21.525Z,8.02
2023-04-23T23:13:53.215Z,7.55
2023-04-23T23:16:25.660Z,7.68
2023-04-23T23:18:58.043Z,8.30
2023-04-23T23:21:30.291Z,8.43
2023-04-23T23:24:02.009Z,8.00
2023-04-23T23:26:33.747Z,7.70
2023-04-23T23:29:05.462Z,8.45
2023-04-23T23:31:37.294Z,7.97
2023-04-23T23:34:09.085Z,9.18
2023-04-23T23:36:41.197Z,8.88
2023-04-23T23:39:13.349Z,8.63
2023-04-23T23:41:46.714Z,8.20
2023-04-23T23:44:18.447Z,8.68
2023-04-23T23:46:53.933Z,8.35
2023-04-23T23:49:25.858Z,8.63
2023-04-23T23:51:57.951Z,9.40
2023-04-23T23:54:29.691Z,9.07
2023-04-23T23:57:05.427Z,8.02
2023-04-23T23:59:37.337Z,8.05
